Réserver un vol à sensation ou initiation.

2 résultats affichés

METAR :

LFQA 290500Z AUTO 22004KT 9999 OVC009 05/04 Q1032


vue en direct sur l'aérodrome
mentions légales politique de confidentialité
Cochet Concept
cx